Time;durP1;ratioP1;P1;durP2;ratioP2;P2;SDS_P1;SDS_P2;PMS_P1;PMS_P2;Temp;Humidity;BMP_temperature;BMP_pressure;BME280_temperature;BME280_humidity;BME280_pressure;Samples;Min_cycle;Max_cycle;Signal;HPM_P1;HPM_P2
2023/04/17 00:01:16;;;;;;;19.10;13.50;;;;;;;9.35;100.00;101929.81;7701594;18;20214;-72
2023/04/17 00:03:43;;;;;;;23.08;14.10;;;;;;;9.33;100.00;101936.00;7789111;18;20002;-72
2023/04/17 00:06:12;;;;;;;20.65;13.88;;;;;;;9.30;100.00;101928.19;7741566;18;20187;-72
2023/04/17 00:08:39;;;;;;;27.70;13.90;;;;;;;9.28;100.00;101925.66;7790214;18;20393;-73
2023/04/17 00:11:06;;;;;;;23.65;13.25;;;;;;;9.30;100.00;101928.19;7740795;18;20081;-72
2023/04/17 00:13:35;;;;;;;24.45;13.35;;;;;;;9.27;100.00;101923.91;7790243;18;20006;-72
2023/04/17 00:16:01;;;;;;;18.08;13.90;;;;;;;9.33;100.00;101925.50;7740910;18;20010;-72
2023/04/17 00:18:28;;;;;;;27.55;15.00;;;;;;;9.31;100.00;101922.09;7787129;18;20005;-72
2023/04/17 00:20:55;;;;;;;28.17;14.38;;;;;;;9.15;100.00;101888.44;7740019;18;19995;-71
2023/04/17 00:23:21;;;;;;;18.90;14.15;;;;;;;9.32;100.00;101947.34;7747327;18;19998;-71
2023/04/17 00:25:48;;;;;;;33.00;15.23;;;;;;;9.32;100.00;101915.91;7741855;18;19995;-71
2023/04/17 00:28:14;;;;;;;20.13;13.75;;;;;;;9.27;100.00;101899.50;7789364;18;20045;-73
2023/04/17 00:30:40;;;;;;;26.70;15.25;;;;;;;9.32;100.00;101910.69;7743128;18;20322;-72
2023/04/17 00:33:07;;;;;;;28.92;15.75;;;;;;;9.08;100.00;101872.94;7788716;18;20014;-72
2023/04/17 00:35:33;;;;;;;22.30;14.00;;;;;;;9.08;100.00;101871.19;7747576;18;20009;-73
2023/04/17 00:38:00;;;;;;;23.00;15.60;;;;;;;9.22;100.00;101894.38;7753431;18;20009;-71
2023/04/17 00:40:26;;;;;;;23.52;14.43;;;;;;;9.36;100.00;101914.94;7739964;18;20429;-72
2023/04/17 00:42:58;;;;;;;25.35;14.35;;;;;;;9.32;100.00;101913.31;7786052;18;20250;-73
2023/04/17 00:45:25;;;;;;;26.42;14.02;;;;;;;9.25;100.00;101910.00;7699937;18;20006;-72
2023/04/17 00:47:52;;;;;;;21.15;12.63;;;;;;;8.90;100.00;101845.47;7786657;18;19994;-73
2023/04/17 00:50:18;;;;;;;23.58;13.73;;;;;;;9.23;100.00;101913.56;7737539;18;20093;-72
2023/04/17 00:52:46;;;;;;;20.63;14.38;;;;;;;9.18;100.00;101911.94;7786603;18;20013;-71
2023/04/17 00:55:13;;;;;;;36.97;14.50;;;;;;;8.50;100.00;101804.66;7739999;18;20305;-72
2023/04/17 00:57:41;;;;;;;22.10;12.98;;;;;;;9.17;100.00;101931.16;7784725;18;20010;-72
2023/04/17 01:00:09;;;;;;;28.23;16.00;;;;;;;9.04;100.00;101895.75;7739163;18;20131;-71
2023/04/17 01:02:36;;;;;;;27.73;14.07;;;;;;;9.23;100.00;101916.19;7787032;18;20010;-72
2023/04/17 01:05:03;;;;;;;30.65;26.35;;;;;;;8.15;100.00;101741.00;7758004;18;20067;-72
2023/04/17 01:07:30;;;;;;;23.40;15.98;;;;;;;9.11;100.00;101891.19;7574617;18;20180;-72
2023/04/17 01:09:56;;;;;;;25.40;16.63;;;;;;;8.62;100.00;101806.97;7785666;18;20001;-72
2023/04/17 01:12:23;;;;;;;21.50;16.10;;;;;;;9.25;100.00;101910.00;7787198;18;20011;-72
2023/04/17 01:14:53;;;;;;;30.45;16.83;;;;;;;9.01;100.00;101867.00;7786351;18;20277;-72
2023/04/17 01:17:20;;;;;;;24.58;14.90;;;;;;;9.04;100.00;101876.53;7786825;18;20534;-72
2023/04/17 01:19:48;;;;;;;27.08;15.43;;;;;;;9.15;100.00;101893.66;7785868;18;20009;-71
2023/04/17 01:22:15;;;;;;;29.65;15.73;;;;;;;9.25;100.00;101909.16;7744478;18;20002;-71
2023/04/17 01:24:42;;;;;;;30.15;15.65;;;;;;;9.24;100.00;101917.91;7745177;18;19994;-71
2023/04/17 01:27:08;;;;;;;27.17;15.30;;;;;;;9.13;100.00;101895.47;7745058;18;20346;-72
2023/04/17 01:29:35;;;;;;;22.63;13.80;;;;;;;9.10;100.00;101890.34;7745674;18;20002;-71
2023/04/17 01:32:01;;;;;;;23.20;14.63;;;;;;;9.15;100.00;101901.53;7745134;18;20014;-73
2023/04/17 01:34:28;;;;;;;29.10;14.88;;;;;;;9.26;100.00;101913.47;7785111;18;20353;-73
2023/04/17 01:36:54;;;;;;;19.00;12.57;;;;;;;9.14;100.00;101896.31;7744607;18;20061;-72
2023/04/17 01:39:20;;;;;;;33.67;12.93;;;;;;;9.30;100.00;101921.22;7743751;18;20006;-72
2023/04/17 01:41:47;;;;;;;22.92;14.63;;;;;;;9.27;100.00;101915.22;7745565;18;19994;-71
2023/04/17 01:44:13;;;;;;;29.45;14.13;;;;;;;9.30;100.00;101921.22;7744765;18;20002;-73
2023/04/17 01:46:40;;;;;;;27.38;16.27;;;;;;;9.31;100.00;101915.06;7744959;18;20064;-71
2023/04/17 01:49:06;;;;;;;22.10;15.00;;;;;;;9.32;100.00;101915.91;7741345;18;19993;-72
2023/04/17 01:51:33;;;;;;;32.38;17.08;;;;;;;9.02;100.00;101870.47;7745471;18;20004;-70
2023/04/17 01:53:59;;;;;;;26.05;14.18;;;;;;;9.22;100.00;101898.75;7742106;18;19997;-72
2023/04/17 01:56:26;;;;;;;30.15;15.18;;;;;;;9.32;100.00;101915.91;7744697;18;20309;-73
2023/04/17 01:58:53;;;;;;;23.63;15.52;;;;;;;9.36;100.00;101918.44;7743863;18;20238;-72
2023/04/17 02:01:20;;;;;;;24.10;15.90;;;;;;;8.34;100.00;101742.25;7743455;18;20059;-72
2023/04/17 02:03:46;;;;;;;22.35;13.60;;;;;;;9.37;100.00;101921.91;7744990;18;20006;-72
2023/04/17 02:06:14;;;;;;;31.63;15.45;;;;;;;9.34;100.00;101914.13;7748222;18;20006;-72
2023/04/17 02:08:41;;;;;;;27.02;15.00;;;;;;;9.33;100.00;101922.91;7747073;18;19998;-72
2023/04/17 02:11:09;;;;;;;23.50;16.05;;;;;;;9.28;100.00;101919.53;7748393;18;20084;-72
2023/04/17 02:13:35;;;;;;;24.85;15.13;;;;;;;9.29;100.00;101919.50;7745651;18;20572;-72
2023/04/17 02:16:02;;;;;;;23.55;15.35;;;;;;;9.27;100.00;101915.22;7745213;18;20010;-72
2023/04/17 02:18:28;;;;;;;26.20;15.63;;;;;;;9.24;100.00;101929.25;7742288;18;20000;-72
2023/04/17 02:20:55;;;;;;;23.38;14.15;;;;;;;9.23;100.00;101927.53;7743928;18;20013;-72
2023/04/17 02:23:21;;;;;;;19.05;13.45;;;;;;;9.19;100.00;101921.50;7742347;18;20013;-72
2023/04/17 02:25:48;;;;;;;21.65;13.90;;;;;;;9.19;100.00;101918.88;7747706;18;20002;-73
2023/04/17 02:28:14;;;;;;;27.27;14.50;;;;;;;9.21;100.00;101918.00;7747720;18;19998;-74
2023/04/17 02:30:41;;;;;;;19.75;13.73;;;;;;;9.16;100.00;101929.44;7746445;18;20187;-71
2023/04/17 02:33:07;;;;;;;20.60;13.82;;;;;;;9.14;100.00;101926.00;7743989;18;19994;-73
2023/04/17 02:35:34;;;;;;;22.45;15.00;;;;;;;9.13;100.00;101929.53;7745218;18;20014;-72
2023/04/17 02:38:00;;;;;;;18.70;13.15;;;;;;;8.95;100.00;101896.81;7743139;18;20483;-71
2023/04/17 02:40:27;;;;;;;22.15;14.20;;;;;;;9.05;100.00;101918.38;7743850;18;20030;-73
2023/04/17 02:42:53;;;;;;;33.28;14.38;;;;;;;9.08;100.00;101931.41;7744077;18;20002;-72
2023/04/17 02:45:20;;;;;;;18.90;12.73;;;;;;;9.07;100.00;101923.59;7744259;18;20057;-72
2023/04/17 02:47:47;;;;;;;25.77;14.10;;;;;;;9.05;100.00;101928.88;7744562;18;20217;-72
2023/04/17 02:50:14;;;;;;;31.90;15.50;;;;;;;9.06;100.00;101919.25;7742069;18;20025;-71
2023/04/17 02:52:40;;;;;;;24.58;13.52;;;;;;;9.02;100.00;101928.06;7742446;18;20005;-72
2023/04/17 02:55:08;;;;;;;24.75;13.93;;;;;;;9.00;100.00;101925.53;7743196;18;19998;-72
2023/04/17 02:57:35;;;;;;;29.40;14.18;;;;;;;9.02;100.00;101936.81;7745177;18;20395;-71
2023/04/17 03:00:06;;;;;;;27.73;15.65;;;;;;;9.00;100.00;101930.75;7743179;18;20057;-72
2023/04/17 03:02:33;;;;;;;25.38;14.35;;;;;;;8.98;100.00;101927.31;7743904;18;20519;-72
2023/04/17 03:05:01;;;;;;;22.88;15.27;;;;;;;8.94;100.00;101923.91;7740778;18;20006;-72
2023/04/17 03:07:27;;;;;;;23.65;14.82;;;;;;;8.82;100.00;101919.00;7741726;18;20328;-71
2023/04/17 03:09:56;;;;;;;24.33;14.48;;;;;;;8.48;100.00;101858.75;7739606;18;20006;-73
2023/04/17 03:12:22;;;;;;;25.35;14.70;;;;;;;8.87;100.00;101924.97;7744597;18;20005;-73
2023/04/17 03:14:49;;;;;;;22.00;12.40;;;;;;;8.88;100.00;101925.81;7744889;18;20006;-72
2023/04/17 03:17:16;;;;;;;28.83;15.07;;;;;;;8.53;100.00;101883.91;7745825;18;20061;-72
2023/04/17 03:19:42;;;;;;;24.08;15.25;;;;;;;7.83;100.00;101774.00;7745043;18;20002;-72
2023/04/17 03:22:09;;;;;;;24.52;15.63;;;;;;;7.78;100.00;101753.22;7744303;18;20022;-72
2023/04/17 03:24:40;;;;;;;34.20;14.90;;;;;;;8.18;100.00;101819.38;7740963;18;20014;-71
2023/04/17 03:27:06;;;;;;;24.27;15.07;;;;;;;8.82;100.00;101932.09;7742255;18;20002;-72
2023/04/17 03:29:32;;;;;;;25.25;15.85;;;;;;;8.72;100.00;101912.25;7738799;18;19995;-72
2023/04/17 03:31:59;;;;;;;34.58;16.52;;;;;;;8.66;100.00;101918.50;7701008;18;20290;-72
2023/04/17 03:34:25;;;;;;;35.20;17.15;;;;;;;8.58;100.00;101910.84;7740674;18;20340;-71
2023/04/17 03:36:54;;;;;;;19.98;14.65;;;;;;;8.80;100.00;101926.03;7743870;18;20061;-73
2023/04/17 03:39:23;;;;;;;23.83;13.38;;;;;;;8.62;100.00;101909.03;7743681;18;20009;-72
2023/04/17 03:41:49;;;;;;;24.42;15.27;;;;;;;8.54;100.00;101892.66;7740991;18;19999;-72
2023/04/17 03:44:17;;;;;;;27.45;13.43;;;;;;;8.77;100.00;101929.56;7742116;18;20110;-72
2023/04/17 03:46:43;;;;;;;24.67;14.63;;;;;;;8.78;100.00;101939.16;7740277;18;20069;-73
2023/04/17 03:49:10;;;;;;;38.00;15.93;;;;;;;8.78;100.00;101943.53;7739561;18;21061;-71
2023/04/17 03:51:37;;;;;;;30.98;17.77;;;;;;;8.81;100.00;101939.97;7736898;18;20224;-72
2023/04/17 03:54:03;;;;;;;27.35;16.17;;;;;;;8.78;100.00;101936.53;7740454;18;20369;-71
2023/04/17 03:56:29;;;;;;;28.13;15.45;;;;;;;8.66;100.00;101920.25;7741621;18;20366;-71
2023/04/17 03:58:56;;;;;;;24.85;16.65;;;;;;;7.48;100.00;101728.66;7740562;18;20013;-72
2023/04/17 04:01:26;;;;;;;30.65;16.88;;;;;;;8.77;100.00;101940.03;7739619;18;20002;-71
2023/04/17 04:03:54;;;;;;;27.85;14.65;;;;;;;8.30;100.00;101867.88;7739579;18;20010;-72
2023/04/17 04:06:21;;;;;;;30.85;16.25;;;;;;;8.40;100.00;101882.50;7742610;18;20005;-72
2023/04/17 04:08:48;;;;;;;24.10;14.02;;;;;;;8.77;100.00;101945.25;7738365;18;20110;-72
2023/04/17 04:11:15;;;;;;;20.75;13.18;;;;;;;8.76;100.00;101937.47;7749662;18;20034;-72
2023/04/17 04:13:41;;;;;;;22.85;14.05;;;;;;;8.72;100.00;101930.56;7740338;18;20269;-72
2023/04/17 04:16:08;;;;;;;44.75;16.27;;;;;;;8.75;100.00;101944.44;7739305;18;20018;-72
2023/04/17 04:18:35;;;;;;;26.83;17.10;;;;;;;8.69;100.00;101941.97;7738990;18;19998;-72
2023/04/17 04:21:02;;;;;;;26.48;15.77;;;;;;;8.76;100.00;101942.72;7698117;18;19995;-71
2023/04/17 04:23:29;;;;;;;37.10;18.02;;;;;;;8.77;100.00;101947.03;7738510;18;20003;-72
2023/04/17 04:25:56;;;;;;;17.83;13.13;;;;;;;8.73;100.00;101948.84;7699319;18;20081;-72
2023/04/17 04:28:23;;;;;;;32.33;15.73;;;;;;;8.77;100.00;101955.72;7739001;18;20003;-71
2023/04/17 04:30:51;;;;;;;19.90;13.65;;;;;;;8.74;100.00;101962.78;7698053;18;19999;-72
2023/04/17 04:33:19;;;;;;;18.00;12.80;;;;;;;8.70;100.00;101954.19;7735931;18;19991;-72
2023/04/17 04:35:50;;;;;;;21.02;13.27;;;;;;;8.70;100.00;101961.16;7699028;18;20058;-72
2023/04/17 04:38:17;;;;;;;23.50;14.25;;;;;;;8.69;100.00;101957.69;7737039;18;20006;-72
2023/04/17 04:40:48;;;;;;;21.70;14.95;;;;;;;8.69;100.00;101960.28;7699091;18;20028;-71
2023/04/17 04:43:15;;;;;;;22.13;14.77;;;;;;;8.65;100.00;101965.66;7737232;18;20347;-70
2023/04/17 04:45:41;;;;;;;19.98;13.57;;;;;;;8.64;100.00;101959.56;7699377;18;20113;-69
2023/04/17 04:48:08;;;;;;;33.03;14.27;;;;;;;8.42;100.00;101937.41;7736733;18;20558;-69
2023/04/17 04:50:34;;;;;;;19.52;14.00;;;;;;;8.61;100.00;101972.72;7700230;18;19998;-70
2023/04/17 04:53:01;;;;;;;20.92;13.20;;;;;;;8.57;100.00;101964.06;7738720;18;20460;-71
2023/04/17 04:55:29;;;;;;;23.58;13.38;;;;;;;8.57;100.00;101963.22;7786337;18;20757;-69
2023/04/17 04:57:56;;;;;;;24.73;15.43;;;;;;;8.59;100.00;101964.88;7744092;18;20241;-70
2023/04/17 05:00:23;;;;;;;20.25;12.82;;;;;;;8.59;100.00;101971.88;7745108;18;20057;-71
2023/04/17 05:02:50;;;;;;;25.77;14.05;;;;;;;8.23;100.00;101916.88;7744492;18;20002;-70
2023/04/17 05:05:16;;;;;;;24.63;13.57;;;;;;;8.56;100.00;101971.97;7786926;18;19998;-71
2023/04/17 05:07:42;;;;;;;23.42;13.32;;;;;;;8.55;100.00;101972.84;7786438;18;20005;-69
2023/04/17 05:10:09;;;;;;;28.00;14.40;;;;;;;8.57;100.00;101978.91;7786050;18;20493;-68
2023/04/17 05:12:35;;;;;;;22.60;14.02;;;;;;;8.59;100.00;101972.72;7786965;18;20214;-70
2023/04/17 05:15:02;;;;;;;24.65;14.00;;;;;;;8.49;100.00;101960.75;7785288;18;20052;-73
2023/04/17 05:17:29;;;;;;;21.23;13.13;;;;;;;8.31;100.00;101940.25;7744996;18;20426;-71
2023/04/17 05:19:55;;;;;;;20.15;13.65;;;;;;;8.26;100.00;101932.50;7784467;18;19997;-71
2023/04/17 05:22:21;;;;;;;29.85;12.90;;;;;;;8.63;100.00;101988.38;7785772;18;20014;-71
2023/04/17 05:24:48;;;;;;;23.60;13.77;;;;;;;8.29;100.00;101942.88;7786343;18;19998;-71
2023/04/17 05:27:15;;;;;;;20.42;13.27;;;;;;;8.63;100.00;101994.47;7787351;18;20041;-71
2023/04/17 05:29:41;;;;;;;28.30;14.15;;;;;;;8.64;100.00;101996.19;7785915;18;20028;-68
2023/04/17 05:32:08;;;;;;;20.08;13.15;;;;;;;8.65;100.00;101997.91;7787437;18;20207;-69
2023/04/17 05:34:34;;;;;;;20.00;13.30;;;;;;;8.65;100.00;101997.06;7785788;18;19998;-71
2023/04/17 05:37:02;;;;;;;19.70;12.68;;;;;;;8.57;100.00;101974.53;7791675;18;20065;-70
2023/04/17 05:39:28;;;;;;;25.95;15.85;;;;;;;8.70;100.00;101996.06;7791883;18;19994;-70
2023/04/17 05:41:55;;;;;;;20.65;14.05;;;;;;;8.08;100.00;101886.72;7787315;18;20581;-71
2023/04/17 05:44:21;;;;;;;20.35;15.13;;;;;;;8.77;100.00;101997.63;7786512;18;20304;-74
2023/04/17 05:46:48;;;;;;;18.95;12.63;;;;;;;8.74;100.00;101996.81;7747869;18;20002;-69
2023/04/17 05:49:14;;;;;;;25.95;14.75;;;;;;;8.66;100.00;101975.22;7787746;18;19998;-70
2023/04/17 05:51:41;;;;;;;26.30;13.32;;;;;;;8.79;100.00;101997.59;7789934;18;20075;-69
2023/04/17 05:54:07;;;;;;;30.17;13.85;;;;;;;8.43;100.00;101931.28;7784604;18;20001;-69
2023/04/17 05:56:33;;;;;;;18.50;13.45;;;;;;;8.80;100.00;101991.47;7788999;18;20001;-69
2023/04/17 05:59:00;;;;;;;20.45;15.82;;;;;;;8.35;100.00;101915.72;7787755;18;20010;-69
2023/04/17 06:01:28;;;;;;;30.08;15.45;;;;;;;8.83;100.00;101994.00;7787960;18;20005;-69
2023/04/17 06:03:57;;;;;;;21.02;12.88;;;;;;;8.76;100.00;101976.72;7781430;18;19998;-70
2023/04/17 06:06:23;;;;;;;29.58;15.48;;;;;;;8.87;100.00;101997.41;7788766;18;20002;-68
2023/04/17 06:08:51;;;;;;;26.08;14.90;;;;;;;8.88;100.00;102000.00;7788055;18;20004;-69
2023/04/17 06:11:17;;;;;;;23.23;16.08;;;;;;;8.91;100.00;102007.75;7787425;18;20006;-69
2023/04/17 06:13:44;;;;;;;21.15;12.75;;;;;;;8.91;100.00;102005.13;7747055;18;20004;-70
2023/04/17 06:16:10;;;;;;;16.40;13.73;;;;;;;8.91;100.00;102006.91;7788368;18;20528;-69
2023/04/17 06:18:37;;;;;;;24.75;14.20;;;;;;;8.94;100.00;102012.06;7787403;18;20021;-69
2023/04/17 06:21:03;;;;;;;20.67;14.05;;;;;;;8.86;100.00;102003.53;7787130;18;20002;-68
2023/04/17 06:23:30;;;;;;;19.90;13.32;;;;;;;8.88;100.00;102005.22;7786493;18;20006;-69
2023/04/17 06:25:56;;;;;;;26.63;14.50;;;;;;;8.95;100.00;102000.69;7788639;18;20000;-69
2023/04/17 06:28:23;;;;;;;23.40;12.95;;;;;;;9.03;100.00;102001.38;7787244;18;20013;-69
2023/04/17 06:30:49;;;;;;;21.92;12.25;;;;;;;8.75;100.00;101949.69;7788178;18;20040;-69
2023/04/17 06:33:16;;;;;;;23.35;11.85;;;;;;;9.13;100.00;102008.09;7787849;18;20002;-70
2023/04/17 06:35:42;;;;;;;17.33;12.30;;;;;;;9.20;100.00;102014.06;7789167;18;20000;-68
2023/04/17 06:38:09;;;;;;;21.23;11.52;;;;;;;9.21;100.00;102009.66;7786442;18;20056;-69
2023/04/17 06:40:35;;;;;;;14.77;12.00;;;;;;;9.34;100.00;102005.81;7788074;18;20450;-69
2023/04/17 06:43:02;;;;;;;25.80;13.27;;;;;;;9.37;100.00;102009.22;7787289;18;20030;-69
2023/04/17 06:45:28;;;;;;;18.30;13.70;;;;;;;9.21;100.00;101993.94;7787922;18;20711;-71
2023/04/17 06:47:54;;;;;;;16.70;11.27;;;;;;;9.46;100.00;102005.53;7787534;18;20065;-69
2023/04/17 06:50:21;;;;;;;19.85;13.23;;;;;;;9.47;100.00;102009.00;7788973;18;20004;-69
2023/04/17 06:52:47;;;;;;;15.40;11.15;;;;;;;9.54;100.00;102014.03;7787370;18;20013;-67
2023/04/17 06:55:14;;;;;;;21.95;13.13;;;;;;;8.23;100.00;101791.34;7783570;18;20012;-68
2023/04/17 06:57:40;;;;;;;25.95;12.68;;;;;;;9.29;100.00;101982.38;7784806;18;20366;-70
2023/04/17 07:00:07;;;;;;;19.02;12.13;;;;;;;9.54;100.00;102021.91;7785602;18;20085;-70
2023/04/17 07:02:34;;;;;;;24.70;14.50;;;;;;;9.44;100.00;102030.91;7786273;18;20005;-70
2023/04/17 07:05:00;;;;;;;16.45;11.88;;;;;;;9.49;100.00;102030.78;7784419;18;19998;-70
2023/04/17 07:07:29;;;;;;;15.70;11.55;;;;;;;9.09;100.00;101938.34;7781751;18;20917;-70
2023/04/17 07:09:55;;;;;;;18.67;11.95;;;;;;;9.70;100.00;102029.31;7783062;18;20469;-71
2023/04/17 07:12:22;;;;;;;15.77;11.15;;;;;;;9.77;100.00;102036.13;7787683;18;20002;-70
2023/04/17 07:14:49;;;;;;;14.60;12.35;;;;;;;9.76;100.00;102030.03;7788163;18;20012;-70
2023/04/17 07:17:15;;;;;;;24.92;12.40;;;;;;;9.21;100.00;101938.94;7790104;18;20021;-69
2023/04/17 07:19:42;;;;;;;16.70;12.43;;;;;;;9.77;100.00;102028.28;7787039;18;20006;-70
2023/04/17 07:22:08;;;;;;;20.73;12.30;;;;;;;9.75;100.00;102035.31;7787972;18;20197;-69
2023/04/17 07:24:35;;;;;;;23.30;13.88;;;;;;;9.76;100.00;102029.16;7788642;18;19998;-70
2023/04/17 07:27:02;;;;;;;19.83;12.48;;;;;;;9.61;100.00;101995.53;7788523;18;20575;-70
2023/04/17 07:29:29;;;;;;;18.83;12.85;;;;;;;9.82;100.00;102030.75;7745797;18;19997;-71
2023/04/17 07:31:55;;;;;;;14.23;11.77;;;;;;;9.77;100.00;102023.03;7788266;18;20691;-70
2023/04/17 07:34:24;;;;;;;26.83;13.18;;;;;;;9.77;100.00;102029.13;7787246;18;20001;-69
2023/04/17 07:36:53;;;;;;;18.17;11.50;;;;;;;9.75;100.00;102030.06;7788869;18;20017;-69
2023/04/17 07:39:20;;;;;;;16.58;12.35;;;;;;;9.79;100.00;102021.22;7786796;18;20422;-69
2023/04/17 07:41:47;;;;;;;22.95;13.10;;;;;;;9.19;100.00;101923.25;7788481;18;20064;-69
2023/04/17 07:44:14;;;;;;;16.67;11.77;;;;;;;9.89;100.00;102017.44;7786918;18;20004;-70
2023/04/17 07:46:41;;;;;;;14.30;12.82;;;;;;;9.94;100.00;102020.81;7788532;18;20009;-71
2023/04/17 07:49:08;;;;;;;16.13;11.00;;;;;;;9.78;100.00;101978.41;7789467;18;20047;-70
2023/04/17 07:51:39;;;;;;;20.90;12.05;;;;;;;9.85;100.00;101999.22;7749530;18;20061;-70
2023/04/17 07:54:06;;;;;;;15.80;10.57;;;;;;;9.60;100.00;101957.94;7789095;18;20001;-71
2023/04/17 07:56:33;;;;;;;17.83;11.73;;;;;;;9.86;100.00;101990.44;7751199;18;20002;-70
2023/04/17 07:59:00;;;;;;;21.88;11.32;;;;;;;9.94;100.00;101947.38;7789103;18;20006;-70
2023/04/17 08:01:26;;;;;;;19.55;11.48;;;;;;;10.29;100.00;101947.22;7790412;18;20068;-70
2023/04/17 08:03:54;;;;;;;14.48;11.25;;;;;;;10.71;100.00;101979.16;7788266;18;20068;-72
2023/04/17 08:06:21;;;;;;;20.60;10.50;;;;;;;10.71;100.00;101981.78;7789102;18;20002;-70
2023/04/17 08:08:47;;;;;;;16.73;12.07;;;;;;;10.81;100.00;101981.50;7788881;18;20497;-70
2023/04/17 08:11:13;;;;;;;14.57;11.38;;;;;;;10.89;100.00;101974.22;7788578;18;20090;-70
2023/04/17 08:13:40;;;;;;;13.90;10.77;;;;;;;10.69;100.00;101967.84;7786906;18;20002;-71
2023/04/17 08:16:07;;;;;;;21.38;12.05;;;;;;;10.76;100.00;101973.72;7785953;18;19994;-70
2023/04/17 08:18:36;;;;;;;14.85;12.02;;;;;;;10.75;100.00;101970.25;7784218;18;20002;-71
2023/04/17 08:21:03;;;;;;;19.52;12.27;;;;;;;11.00;100.00;101971.22;7785247;18;20123;-71
2023/04/17 08:23:29;;;;;;;16.98;10.77;;;;;;;10.88;100.00;101936.56;7782348;18;20004;-71
2023/04/17 08:25:56;;;;;;;19.05;13.07;;;;;;;10.68;100.00;101905.72;7785544;18;20005;-69
2023/04/17 08:28:23;;;;;;;21.60;10.68;;;;;;;11.15;100.00;101958.44;7786028;18;19998;-70
2023/04/17 08:30:50;;;;;;;19.08;12.23;;;;;;;11.04;100.00;101925.53;7786797;18;20057;-71
2023/04/17 08:33:17;;;;;;;14.55;11.38;;;;;;;11.14;100.00;101945.31;7744626;18;20482;-71
2023/04/17 08:35:43;;;;;;;16.13;11.88;;;;;;;10.77;100.00;101912.44;7787822;18;20336;-70
2023/04/17 08:38:12;;;;;;;15.63;11.38;;;;;;;10.44;100.00;101889.00;7784878;18;20264;-70
2023/04/17 08:40:41;;;;;;;21.67;12.73;;;;;;;11.05;100.00;101959.66;7786711;18;20434;-71
2023/04/17 08:43:18;;;;;;;23.80;11.63;;;;;;;10.91;100.00;101964.50;7786490;18;20014;-70
2023/04/17 08:45:53;;;;;;;17.25;11.18;;;;;;;10.88;100.00;101975.97;7790426;18;20273;-70
2023/04/17 08:48:21;;;;;;;14.85;10.45;;;;;;;10.78;100.00;101979.78;7745101;18;20180;-70
2023/04/17 08:50:50;;;;;;;19.20;12.32;;;;;;;10.97;100.00;101969.56;7787678;18;20326;-70
2023/04/17 08:53:19;;;;;;;18.05;10.75;;;;;;;10.86;100.00;101937.53;7785985;18;20136;-71
2023/04/17 08:55:47;;;;;;;17.52;11.15;;;;;;;11.20;100.00;101968.75;7747728;18;20068;-70
2023/04/17 08:58:13;;;;;;;16.15;10.70;;;;;;;11.10;100.00;101943.72;7784313;18;20009;-71
2023/04/17 09:00:42;;;;;;;18.52;10.85;;;;;;;11.23;100.00;101946.81;7785961;18;20018;-70
2023/04/17 09:03:12;;;;;;;17.55;12.43;;;;;;;10.26;100.00;101810.88;7785489;18;20056;-71
2023/04/17 09:05:42;;;;;;;15.95;11.02;;;;;;;11.40;100.00;101949.66;7787579;18;20229;-72
2023/04/17 09:08:20;;;;;;;16.85;10.70;;;;;;;11.63;97.87;101937.50;7787029;18;19995;-71
2023/04/17 09:10:51;;;;;;;13.48;10.52;;;;;;;11.59;93.52;101905.19;7786281;18;20000;-71
2023/04/17 09:13:24;;;;;;;12.80;10.35;;;;;;;11.62;93.59;101909.47;7787195;18;20001;-71
2023/04/17 09:16:08;;;;;;;16.42;10.50;;;;;;;11.46;93.15;101896.03;7746377;18;20006;-69
2023/04/17 09:18:36;;;;;;;15.85;11.40;;;;;;;11.43;95.19;101906.66;7787161;18;19997;-71
2023/04/17 09:21:04;;;;;;;12.65;10.27;;;;;;;11.18;94.49;101845.34;7786616;18;20272;-70
2023/04/17 09:23:45;;;;;;;23.45;12.73;;;;;;;10.51;94.44;101732.22;7749963;18;20478;-70
2023/04/17 09:26:13;;;;;;;15.75;10.88;;;;;;;11.49;92.57;101896.78;7786469;18;19998;-70
2023/04/17 09:28:58;;;;;;;18.23;10.77;;;;;;;11.29;92.25;101795.00;7787147;18;19994;-69
2023/04/17 09:31:27;;;;;;;16.75;12.50;;;;;;;12.30;90.34;101894.59;7787325;18;20073;-70
2023/04/17 09:34:00;;;;;;;19.40;11.00;;;;;;;12.62;84.98;101859.03;7785920;18;20152;-72
2023/04/17 09:36:29;;;;;;;15.65;11.52;;;;;;;12.37;85.92;101840.78;7786515;18;19994;-72
2023/04/17 09:38:58;;;;;;;16.05;10.50;;;;;;;12.57;83.03;101840.81;7787154;18;20004;-71
2023/04/17 09:41:26;;;;;;;16.08;11.45;;;;;;;12.31;79.06;101770.81;7786146;18;19998;-74
2023/04/17 09:43:54;;;;;;;13.18;9.30;;;;;;;12.20;79.74;101783.56;7785985;18;20005;-70
2023/04/17 09:46:36;;;;;;;15.70;11.70;;;;;;;11.73;77.59;101695.16;7748422;18;19998;-71
2023/04/17 09:49:09;;;;;;;11.52;10.43;;;;;;;12.44;77.62;101771.16;7789847;18;20002;-71
2023/04/17 09:51:36;;;;;;;17.50;10.77;;;;;;;12.52;75.88;101731.31;7792253;18;20028;-72
2023/04/17 09:54:04;;;;;;;18.35;11.40;;;;;;;12.63;75.49;101738.75;7787725;18;20155;-70
2023/04/17 09:56:32;;;;;;;11.80;10.07;;;;;;;12.75;73.40;101691.66;7791482;18;20002;-71
2023/04/17 09:59:03;;;;;;;13.40;10.10;;;;;;;12.70;72.83;101677.84;7784441;18;20037;-71
2023/04/17 10:01:35;;;;;;;13.73;10.13;;;;;;;13.00;73.42;101705.50;7790902;18;20290;-70
2023/04/17 10:04:03;;;;;;;14.50;11.23;;;;;;;12.85;73.78;101700.00;7788036;18;20013;-71
2023/04/17 10:06:31;;;;;;;19.80;11.52;;;;;;;13.40;74.54;101749.31;7788391;18;20001;-72
2023/04/17 10:08:58;;;;;;;13.75;10.05;;;;;;;13.74;73.56;101729.25;7785734;18;20089;-72
2023/04/17 10:11:30;;;;;;;13.25;10.07;;;;;;;13.84;71.16;101709.38;7786629;18;19990;-70
2023/04/17 10:14:17;;;;;;;13.05;11.27;;;;;;;13.94;70.34;101670.19;7785516;18;19998;-71
2023/04/17 10:16:43;;;;;;;11.23;9.88;;;;;;;13.88;67.32;101599.25;7786451;18;20004;-71
2023/04/17 10:19:31;;;;;;;14.35;10.18;;;;;;;13.95;69.62;101659.56;7784787;18;19998;-72
2023/04/17 10:22:18;;;;;;;12.90;10.07;;;;;;;13.69;68.17;101588.78;7785850;18;20006;-71
2023/04/17 10:24:47;;;;;;;13.18;10.27;;;;;;;13.67;68.25;101591.53;7785768;18;20000;-72
2023/04/17 10:27:26;;;;;;;11.40;10.02;;;;;;;13.65;67.97;101582.84;7786353;18;20009;-71
2023/04/17 10:29:59;;;;;;;15.93;10.77;;;;;;;13.28;68.89;101579.34;7784988;18;20435;-71
2023/04/17 10:32:27;;;;;;;12.93;10.35;;;;;;;13.75;70.65;101633.31;7787231;18;20584;-71
2023/04/17 10:35:05;;;;;;;16.23;10.90;;;;;;;14.21;69.12;101619.53;7785630;18;20002;-70
2023/04/17 10:37:50;;;;;;;12.98;9.10;;;;;;;14.27;67.68;101595.44;7745669;18;20017;-71
2023/04/17 10:40:21;;;;;;;9.77;8.65;;;;;;;14.18;64.88;101522.88;7696901;18;20006;-70
2023/04/17 10:43:13;;;;;;;10.40;9.07;;;;;;;13.37;62.65;101404.09;7740903;18;20002;-73
2023/04/17 10:45:55;;;;;;;13.60;8.93;;;;;;;13.49;63.17;101436.84;7738618;18;20423;-71
2023/04/17 10:48:37;;;;;;;10.68;8.50;;;;;;;13.55;63.51;101434.75;7788445;18;20430;-72
2023/04/17 10:51:23;;;;;;;11.90;8.75;;;;;;;13.28;63.31;101383.44;7738931;18;20330;-71
2023/04/17 10:53:54;;;;;;;19.40;8.52;;;;;;;13.11;62.49;101377.28;7784507;18;19994;-71
2023/04/17 10:56:44;;;;;;;10.55;9.23;;;;;;;13.30;64.47;101427.25;7738548;18;20157;-72
2023/04/17 10:59:16;;;;;;;13.10;9.30;;;;;;;13.70;65.26;101463.88;7782357;18;20470;-70
2023/04/17 11:01:49;;;;;;;9.07;7.82;;;;;;;13.65;64.25;101442.16;7738573;18;20025;-71
2023/04/17 11:04:23;;;;;;;11.32;9.00;;;;;;;14.01;64.96;101471.03;7783465;18;20396;-70
2023/04/17 11:06:51;;;;;;;11.30;9.77;;;;;;;14.31;62.83;101428.88;7738998;18;20494;-71
2023/04/17 11:09:21;;;;;;;11.30;8.50;;;;;;;14.03;63.93;101428.69;7743672;18;20244;-70
2023/04/17 11:11:47;;;;;;;10.32;9.30;;;;;;;13.65;62.33;101370.94;7739006;18;19995;-70
2023/04/17 11:14:15;;;;;;;12.88;9.40;;;;;;;13.73;62.36;101369.63;7784019;18;20057;-71